Emily Borchard — ZDIO6 — position and weather

sailwx.info

Track history (hours):
 
Tides and Currents Weather Stations Pressure Air Temp Water Temp Dewpoint Dewpoint Depression Visibility Wind Speed Wind Dir Waves Ship Positions

Emily Borchard

Last reported at 2017-Nov-25 01:59 UTC. Time now 2017-Nov-25 02:06 UTC.
Position N 41°12' W 008°41'.

Length 134 m; draft 6.1 m.

Type: Ship (hazmat cat A). MMSI: 236471000.

Date/timePositionNaut miles runAvg speedWind from/ knotsBaromVisibWave heightAir tempDewpointWater temp
2017-Nov-25 01:59N 41°12' W 008°41'0 0.0
2017-Nov-25 01:29N 41°12' W 008°41'0 0.0
2017-Nov-25 00:59N 41°12' W 008°41'0 0.0
2017-Nov-25 00:29N 41°12' W 008°41'0 0.0
2017-Nov-24 23:59N 41°12' W 008°41'0 0.0
2017-Nov-24 23:29N 41°12' W 008°41'0 0.0
2017-Nov-24 22:59N 41°12' W 008°41'0 0.0
2017-Nov-24 22:29N 41°12' W 008°41'0 0.0
2017-Nov-24 21:59N 41°12' W 008°41'0 0.0
2017-Nov-24 21:29N 41°12' W 008°41'0 0.0
2017-Nov-24 20:59N 41°12' W 008°41'0 0.0
2017-Nov-24 20:29N 41°12' W 008°41'0 0.0
2017-Nov-24 19:59N 41°12' W 008°41'0 0.0
2017-Nov-24 19:29N 41°12' W 008°41'0 0.4
2017-Nov-24 19:00N 41°11' W 008°41'1 2.8
2017-Nov-24 18:30N 41°10' W 008°42'2 4.1
2017-Nov-24 18:01N 41°09' W 008°44'1 1.4
2017-Nov-24 17:30N 41°09' W 008°45'1 1.2
2017-Nov-24 16:59N 41°08' W 008°46'0 0.0
2017-Nov-24 16:29N 41°08' W 008°46'0 0.0
2017-Nov-24 15:59N 41°08' W 008°46'0 0.0
2017-Nov-24 15:29N 41°08' W 008°46'0 0.0
2017-Nov-24 14:56N 41°08' W 008°46'0 0.0
2017-Nov-24 14:29N 41°08' W 008°46'0 0.0
2017-Nov-24 13:59N 41°08' W 008°46'0 0.0
2017-Nov-24 13:29N 41°08' W 008°46'0 0.0
2017-Nov-24 12:59N 41°08' W 008°46'0 0.0
2017-Nov-24 12:29N 41°08' W 008°46'0 0.0
2017-Nov-24 11:59N 41°08' W 008°46'0 0.0
2017-Nov-24 11:26N 41°08' W 008°46'0 0.7
2017-Nov-24 11:00N 41°08' W 008°46'816.3
2017-Nov-24 10:31N 41°00' W 008°50'9113.3
2017-Nov-24 03:42N 39°38' W 009°38'716.8
2017-Nov-24 03:17N 39°31' W 009°42'716.4
2017-Nov-24 02:52N 39°25' W 009°43'617.1
2017-Nov-24 02:31N 39°18' W 009°43'816.8
2017-Nov-24 02:00N 39°10' W 009°43'817.0
2017-Nov-24 01:31N 39°02' W 009°43'816.7
2017-Nov-24 01:00N 38°53' W 009°43'817.0
2017-Nov-24 00:31N 38°45' W 009°42'815.3
2017-Nov-24 00:00N 38°38' W 009°38'816.7
2017-Nov-23 23:30N 38°32' W 009°30'816.5
2017-Nov-23 23:01N 38°27' W 009°22'816.5
2017-Nov-23 22:31N 38°21' W 009°15'815.5
2017-Nov-23 22:01N 38°24' W 009°05'816.2
2017-Nov-23 21:30N 38°29' W 008°57'4 8.2
2017-Nov-23 21:00N 38°31' W 008°52'0 0.0
2017-Nov-23 20:24N 38°31' W 008°52'0 0.0
2017-Nov-23 20:00N 38°31' W 008°52'0 0.0
2017-Nov-23 19:09N 38°31' W 008°52'0 0.0
2017-Nov-23 18:42N 38°31' W 008°52'0 0.0
2017-Nov-23 18:24N 38°31' W 008°52'0 0.0
2017-Nov-23 17:54N 38°31' W 008°52'0 0.0
2017-Nov-23 17:30N 38°31' W 008°52'0 0.0
2017-Nov-23 14:21N 38°31' W 008°52'0 0.0
2017-Nov-23 13:45N 38°31' W 008°52'0 0.0
2017-Nov-23 13:27N 38°31' W 008°52'0 0.0
2017-Nov-23 12:51N 38°31' W 008°52'0 0.0
2017-Nov-23 10:30N 38°31' W 008°52'0 0.0
2017-Nov-23 09:57N 38°31' W 008°52'0 0.0
2017-Nov-23 09:27N 38°31' W 008°52'0 0.0
2017-Nov-23 08:36N 38°31' W 008°52'0 0.0
2017-Nov-23 08:27N 38°31' W 008°52'0 0.0
2017-Nov-23 08:00N 38°31' W 008°52'0 0.0
2017-Nov-23 07:30N 38°31' W 008°52'0 0.0
2017-Nov-23 05:54N 38°31' W 008°52'0 0.0
2017-Nov-23 05:27N 38°31' W 008°52'0 0.0
2017-Nov-23 04:54N 38°31' W 008°52'0 0.0
2017-Nov-23 04:27N 38°31' W 008°52'0 0.0
2017-Nov-23 03:57N 38°31' W 008°52'0 0.0
2017-Nov-23 02:36N 38°31' W 008°52'0 0.0
2017-Nov-23 02:09N 38°31' W 008°52'0 0.0
2017-Nov-23 00:51N 38°31' W 008°52'0 0.0
2017-Nov-23 00:19N 38°31' W 008°52'1 2.4
2017-Nov-23 00:01N 38°31' W 008°53'4 8.4
2017-Nov-22 23:31N 38°28' W 008°57'612.7
2017-Nov-22 23:00N 38°22' W 008°59'918.9
2017-Nov-22 22:31N 38°12' W 008°57'918.7
2017-Nov-22 22:01N 38°03' W 008°56'816.2
2017-Nov-22 21:31N 37°55' W 008°53'2 3.3
2017-Nov-22 21:00N 37°56' W 008°51'0 0.0
2017-Nov-22 20:28N 37°56' W 008°51'0 0.0
2017-Nov-22 19:55N 37°56' W 008°51'0 0.0
2017-Nov-22 19:19N 37°56' W 008°51'  
2017-Nov-19 23:21N 48°23' W 007°36'1417.5
2017-Nov-19 22:34N 48°36' W 007°29'417.6
2017-Nov-19 22:21N 48°40' W 007°27'717.9
2017-Nov-19 21:57N 48°47' W 007°24'918.1
2017-Nov-19 21:28N 48°55' W 007°19'817.9
2017-Nov-19 21:00N 49°03' W 007°15'1217.9
2017-Nov-19 20:20N 49°15' W 007°10'617.7
2017-Nov-19 20:00N 49°20' W 007°07'1117.5
2017-Nov-19 19:24N 49°30' W 007°01'917.2
2017-Nov-19 18:52N 49°39' W 006°57'917.1
2017-Nov-19 18:21N 49°47' W 006°52'916.9
2017-Nov-19 17:49N 49°56' W 006°49'13316.8
2017-Nov-19 09:55N 52°03' W 005°51'1015.5
2017-Nov-19 09:15N 52°14' W 005°48'415.0
2017-Nov-19 09:00N 52°17' W 005°47'714.8
2017-Nov-19 08:30N 52°24' W 005°45'714.6
2017-Nov-19 08:00N 52°32' W 005°43'10116.7
2017-Nov-19 01:59N 54°11' W 005°19'816.6
2017-Nov-19 01:30N 54°19' W 005°18'816.1
2017-Nov-19 01:00N 54°27' W 005°17'815.9
2017-Nov-19 00:30N 54°35' W 005°17'816.3
2017-Nov-19 00:00N 54°43' W 005°16'816.5
2017-Nov-18 23:30N 54°51' W 005°17'816.6
2017-Nov-18 23:00N 54°60' W 005°17'3016.9
2017-Nov-18 21:12N 55°29' W 005°00'317.0
2017-Nov-18 21:00N 55°32' W 004°59'917.4
2017-Nov-18 20:30N 55°41' W 004°59'816.9
2017-Nov-18 20:01N 55°49' W 004°57'714.4
2017-Nov-18 19:31N 55°56' W 004°55'5 0.4
2017-Nov-18 08:03N 55°58' W 004°47'1 8.7
2017-Nov-18 07:59N 55°58' W 004°48'511.4
2017-Nov-18 07:31N 55°54' W 004°55'917.3
2017-Nov-18 07:01N 55°46' W 004°58'611.3
2017-Nov-18 06:31N 55°40' W 004°58'510.9
2017-Nov-18 06:01N 55°35' W 004°57'510.5
2017-Nov-18 05:30N 55°29' W 004°55'2310.6
2017-Nov-18 03:18N 55°08' W 005°09'310.7
2017-Nov-18 03:00N 55°05' W 005°11'611.2
2017-Nov-18 02:30N 54°60' W 005°15'511.0
2017-Nov-18 02:01N 54°54' W 005°15'612.1
2017-Nov-18 01:30N 54°48' W 005°11'611.7
2017-Nov-18 01:00N 54°43' W 005°07'612.2
2017-Nov-18 00:30N 54°37' W 005°03'611.8
2017-Nov-18 00:00N 54°32' W 005°02'611.9
2017-Nov-17 23:31N 54°26' W 005°00'611.6
2017-Nov-17 23:00N 54°20' W 004°60'611.7
2017-Nov-17 22:31N 54°14' W 004°59'4510.8
2017-Nov-17 18:19N 53°42' W 004°05'411.5
2017-Nov-17 17:58N 53°40' W 003°59'511.5
2017-Nov-17 17:30N 53°37' W 003°52'611.5
2017-Nov-17 17:00N 53°34' W 003°43'611.0
2017-Nov-17 16:30N 53°34' W 003°34'511.0
2017-Nov-17 16:00N 53°33' W 003°25'510.9
2017-Nov-17 15:30N 53°32' W 003°16'612.9
2017-Nov-17 15:00N 53°30' W 003°06'4 7.6
2017-Nov-17 14:30N 53°27' W 003°01'0 0.1
2017-Nov-17 14:00N 53°27' W 003°01'0 0.4
2017-Nov-17 13:30N 53°27' W 003°01'0 0.7
2017-Nov-17 13:00N 53°28' W 003°02'0 0.0
2017-Nov-17 12:30N 53°28' W 003°02'0 0.0
2017-Nov-17 12:00N 53°28' W 003°02'0 0.0
2017-Nov-17 11:30N 53°28' W 003°02'0 0.0
2017-Nov-17 11:00N 53°28' W 003°02'0 0.0
2017-Nov-17 10:30N 53°28' W 003°02'0 0.0
2017-Nov-17 10:00N 53°28' W 003°02'0 0.0
2017-Nov-17 09:30N 53°28' W 003°02'0 0.0
2017-Nov-17 09:00N 53°28' W 003°02'0 0.0
2017-Nov-17 08:30N 53°28' W 003°02'0 0.0
2017-Nov-17 08:00N 53°28' W 003°02'0 0.0
2017-Nov-17 07:30N 53°28' W 003°02'0 0.0
2017-Nov-17 07:00N 53°28' W 003°02'0 0.0
2017-Nov-17 06:24N 53°28' W 003°02'0 0.0
2017-Nov-17 06:00N 53°28' W 003°02'0 0.0
2017-Nov-17 05:30N 53°28' W 003°02'0 0.0
2017-Nov-17 05:00N 53°28' W 003°02'0 0.0
2017-Nov-17 04:30N 53°28' W 003°02'0 0.0
2017-Nov-17 03:57N 53°28' W 003°02'0 0.0
2017-Nov-17 03:30N 53°28' W 003°02'0 0.0
2017-Nov-17 03:00N 53°28' W 003°02'0 0.0
2017-Nov-17 02:27N 53°28' W 003°02'0 0.0
2017-Nov-17 01:57N 53°28' W 003°02'0 0.0
2017-Nov-17 01:30N 53°28' W 003°02'0 0.0
2017-Nov-17 01:00N 53°28' W 003°02'0 0.0
2017-Nov-17 00:30N 53°28' W 003°02'0 0.0
2017-Nov-17 00:00N 53°28' W 003°02'0 0.0
2017-Nov-16 23:30N 53°28' W 003°02'0 0.0
2017-Nov-16 22:54N 53°28' W 003°02'0 0.0
2017-Nov-16 22:27N 53°28' W 003°02'0 0.0
2017-Nov-16 22:00N 53°28' W 003°02'0 0.0
2017-Nov-16 21:30N 53°28' W 003°02'0 0.0
2017-Nov-16 21:00N 53°28' W 003°02'0 0.0
2017-Nov-16 20:30N 53°28' W 003°02'0 0.0
2017-Nov-16 19:57N 53°28' W 003°02'0 0.0
2017-Nov-16 19:30N 53°28' W 003°02'0 0.0
2017-Nov-16 19:00N 53°28' W 003°02'0 0.0
2017-Nov-16 18:30N 53°28' W 003°02'0 0.0
2017-Nov-16 18:00N 53°28' W 003°02'0 0.0
2017-Nov-16 17:30N 53°28' W 003°02'0 0.0
2017-Nov-16 17:00N 53°28' W 003°02'0 0.0
2017-Nov-16 16:30N 53°28' W 003°02'0 0.0
2017-Nov-16 16:00N 53°28' W 003°02'0 0.0
2017-Nov-16 15:30N 53°28' W 003°02'0 0.0
2017-Nov-16 15:00N 53°28' W 003°02'0 0.0
2017-Nov-16 14:30N 53°28' W 003°02'0 0.0
2017-Nov-16 14:00N 53°28' W 003°02'0 0.0
2017-Nov-16 13:30N 53°28' W 003°02'0 0.0
2017-Nov-16 13:00N 53°28' W 003°02'0 0.3
2017-Nov-16 12:30N 53°27' W 003°01'0 0.9
2017-Nov-16 12:00N 53°27' W 003°01'0 0.3
2017-Nov-16 11:30N 53°27' W 003°01'0 0.5
2017-Nov-16 11:00N 53°27' W 003°02'1 1.1
2017-Nov-16 10:30N 53°27' W 003°02'613.1
2017-Nov-16 10:01N 53°32' W 003°10'713.1
2017-Nov-16 09:30N 53°32' W 003°22'3 5.5
2017-Nov-16 09:00N 53°31' W 003°26'4 7.5
2017-Nov-16 08:30N 53°31' W 003°33'4 7.2
2017-Nov-16 08:00N 53°31' W 003°39'4 8.8
2017-Nov-16 07:30N 53°31' W 003°46'510.9
2017-Nov-16 07:01N 53°30' W 003°55'510.1
2017-Nov-16 06:30N 53°30' W 004°04'510.0
2017-Nov-16 06:00N 53°30' W 004°12'8712.8
2017-Nov-15 23:13N 52°17' W 005°30'9814.0
2017-Nov-15 16:15N 50°44' W 006°18'8015.4
2017-Nov-15 11:04N 49°27' W 006°54'515.6
2017-Nov-15 10:45N 49°23' W 006°56'2715.5
2017-Nov-15 09:01N 48°57' W 007°09'3115.4
2017-Nov-15 07:02N 48°28' W 007°22'315.2
2017-Nov-15 06:51N 48°25' W 007°24'515.3
2017-Nov-15 06:29N 48°20' W 007°26'815.1
2017-Nov-15 05:58N 48°12' W 007°30'715.2
2017-Nov-15 05:30N 48°06' W 007°33'815.2
2017-Nov-15 04:59N 47°58' W 007°36'2017.8
2017-Nov-15 03:50N 47°39' W 007°46'  
Track history (hours):
 
Tides and Currents Weather Stations Pressure Air Temp Water Temp Dewpoint Dewpoint Depression Visibility Wind Speed Wind Dir Waves Ship Positions

Emily Borchard

Last reported at 2017-Nov-25 01:59 UTC. Time now 2017-Nov-25 02:06 UTC.
Position N 41°12' W 008°41'.

Length 134 m; draft 6.1 m.

Type: Ship (hazmat cat A). MMSI: 236471000.

Date/timePositionNaut miles runAvg speedWind from/ knotsBaromVisibWave heightAir tempDewpointWater temp
2017-Nov-25 01:59N 41°12' W 008°41'0 0.0
2017-Nov-25 01:29N 41°12' W 008°41'0 0.0
2017-Nov-25 00:59N 41°12' W 008°41'0 0.0
2017-Nov-25 00:29N 41°12' W 008°41'0 0.0
2017-Nov-24 23:59N 41°12' W 008°41'0 0.0
2017-Nov-24 23:29N 41°12' W 008°41'0 0.0
2017-Nov-24 22:59N 41°12' W 008°41'0 0.0
2017-Nov-24 22:29N 41°12' W 008°41'0 0.0
2017-Nov-24 21:59N 41°12' W 008°41'0 0.0
2017-Nov-24 21:29N 41°12' W 008°41'0 0.0
2017-Nov-24 20:59N 41°12' W 008°41'0 0.0
2017-Nov-24 20:29N 41°12' W 008°41'0 0.0
2017-Nov-24 19:59N 41°12' W 008°41'0 0.0
2017-Nov-24 19:29N 41°12' W 008°41'0 0.4
2017-Nov-24 19:00N 41°11' W 008°41'1 2.8
2017-Nov-24 18:30N 41°10' W 008°42'2 4.1
2017-Nov-24 18:01N 41°09' W 008°44'1 1.4
2017-Nov-24 17:30N 41°09' W 008°45'1 1.2
2017-Nov-24 16:59N 41°08' W 008°46'0 0.0
2017-Nov-24 16:29N 41°08' W 008°46'0 0.0
2017-Nov-24 15:59N 41°08' W 008°46'0 0.0
2017-Nov-24 15:29N 41°08' W 008°46'0 0.0
2017-Nov-24 14:56N 41°08' W 008°46'0 0.0
2017-Nov-24 14:29N 41°08' W 008°46'0 0.0
2017-Nov-24 13:59N 41°08' W 008°46'0 0.0
2017-Nov-24 13:29N 41°08' W 008°46'0 0.0
2017-Nov-24 12:59N 41°08' W 008°46'0 0.0
2017-Nov-24 12:29N 41°08' W 008°46'0 0.0
2017-Nov-24 11:59N 41°08' W 008°46'0 0.0
2017-Nov-24 11:26N 41°08' W 008°46'0 0.7
2017-Nov-24 11:00N 41°08' W 008°46'816.3
2017-Nov-24 10:31N 41°00' W 008°50'9113.3
2017-Nov-24 03:42N 39°38' W 009°38'716.8
2017-Nov-24 03:17N 39°31' W 009°42'716.4
2017-Nov-24 02:52N 39°25' W 009°43'617.1
2017-Nov-24 02:31N 39°18' W 009°43'816.8
2017-Nov-24 02:00N 39°10' W 009°43'817.0
2017-Nov-24 01:31N 39°02' W 009°43'816.7
2017-Nov-24 01:00N 38°53' W 009°43'817.0
2017-Nov-24 00:31N 38°45' W 009°42'815.3
2017-Nov-24 00:00N 38°38' W 009°38'816.7
2017-Nov-23 23:30N 38°32' W 009°30'816.5
2017-Nov-23 23:01N 38°27' W 009°22'816.5
2017-Nov-23 22:31N 38°21' W 009°15'815.5
2017-Nov-23 22:01N 38°24' W 009°05'816.2
2017-Nov-23 21:30N 38°29' W 008°57'4 8.2
2017-Nov-23 21:00N 38°31' W 008°52'0 0.0
2017-Nov-23 20:24N 38°31' W 008°52'0 0.0
2017-Nov-23 20:00N 38°31' W 008°52'0 0.0
2017-Nov-23 19:09N 38°31' W 008°52'0 0.0
2017-Nov-23 18:42N 38°31' W 008°52'0 0.0
2017-Nov-23 18:24N 38°31' W 008°52'0 0.0
2017-Nov-23 17:54N 38°31' W 008°52'0 0.0
2017-Nov-23 17:30N 38°31' W 008°52'0 0.0
2017-Nov-23 14:21N 38°31' W 008°52'0 0.0
2017-Nov-23 13:45N 38°31' W 008°52'0 0.0
2017-Nov-23 13:27N 38°31' W 008°52'0 0.0
2017-Nov-23 12:51N 38°31' W 008°52'0 0.0
2017-Nov-23 10:30N 38°31' W 008°52'0 0.0
2017-Nov-23 09:57N 38°31' W 008°52'0 0.0
2017-Nov-23 09:27N 38°31' W 008°52'0 0.0
2017-Nov-23 08:36N 38°31' W 008°52'0 0.0
2017-Nov-23 08:27N 38°31' W 008°52'0 0.0
2017-Nov-23 08:00N 38°31' W 008°52'0 0.0
2017-Nov-23 07:30N 38°31' W 008°52'0 0.0
2017-Nov-23 05:54N 38°31' W 008°52'0 0.0
2017-Nov-23 05:27N 38°31' W 008°52'0 0.0
2017-Nov-23 04:54N 38°31' W 008°52'0 0.0
2017-Nov-23 04:27N 38°31' W 008°52'0 0.0
2017-Nov-23 03:57N 38°31' W 008°52'0 0.0
2017-Nov-23 02:36N 38°31' W 008°52'0 0.0
2017-Nov-23 02:09N 38°31' W 008°52'0 0.0
2017-Nov-23 00:51N 38°31' W 008°52'0 0.0
2017-Nov-23 00:19N 38°31' W 008°52'1 2.4
2017-Nov-23 00:01N 38°31' W 008°53'4 8.4
2017-Nov-22 23:31N 38°28' W 008°57'612.7
2017-Nov-22 23:00N 38°22' W 008°59'918.9
2017-Nov-22 22:31N 38°12' W 008°57'918.7
2017-Nov-22 22:01N 38°03' W 008°56'816.2
2017-Nov-22 21:31N 37°55' W 008°53'2 3.3
2017-Nov-22 21:00N 37°56' W 008°51'0 0.0
2017-Nov-22 20:28N 37°56' W 008°51'0 0.0
2017-Nov-22 19:55N 37°56' W 008°51'0 0.0
2017-Nov-22 19:19N 37°56' W 008°51'  
2017-Nov-19 23:21N 48°23' W 007°36'1417.5
2017-Nov-19 22:34N 48°36' W 007°29'417.6
2017-Nov-19 22:21N 48°40' W 007°27'717.9
2017-Nov-19 21:57N 48°47' W 007°24'918.1
2017-Nov-19 21:28N 48°55' W 007°19'817.9
2017-Nov-19 21:00N 49°03' W 007°15'1217.9
2017-Nov-19 20:20N 49°15' W 007°10'617.7
2017-Nov-19 20:00N 49°20' W 007°07'1117.5
2017-Nov-19 19:24N 49°30' W 007°01'917.2
2017-Nov-19 18:52N 49°39' W 006°57'917.1
2017-Nov-19 18:21N 49°47' W 006°52'916.9
2017-Nov-19 17:49N 49°56' W 006°49'13316.8
2017-Nov-19 09:55N 52°03' W 005°51'1015.5
2017-Nov-19 09:15N 52°14' W 005°48'415.0
2017-Nov-19 09:00N 52°17' W 005°47'714.8
2017-Nov-19 08:30N 52°24' W 005°45'714.6
2017-Nov-19 08:00N 52°32' W 005°43'10116.7
2017-Nov-19 01:59N 54°11' W 005°19'816.6
2017-Nov-19 01:30N 54°19' W 005°18'816.1
2017-Nov-19 01:00N 54°27' W 005°17'815.9
2017-Nov-19 00:30N 54°35' W 005°17'816.3
2017-Nov-19 00:00N 54°43' W 005°16'816.5
2017-Nov-18 23:30N 54°51' W 005°17'816.6
2017-Nov-18 23:00N 54°60' W 005°17'3016.9
2017-Nov-18 21:12N 55°29' W 005°00'317.0
2017-Nov-18 21:00N 55°32' W 004°59'917.4
2017-Nov-18 20:30N 55°41' W 004°59'816.9
2017-Nov-18 20:01N 55°49' W 004°57'714.4
2017-Nov-18 19:31N 55°56' W 004°55'5 0.4
2017-Nov-18 08:03N 55°58' W 004°47'1 8.7
2017-Nov-18 07:59N 55°58' W 004°48'511.4
2017-Nov-18 07:31N 55°54' W 004°55'917.3
2017-Nov-18 07:01N 55°46' W 004°58'611.3
2017-Nov-18 06:31N 55°40' W 004°58'510.9
2017-Nov-18 06:01N 55°35' W 004°57'510.5
2017-Nov-18 05:30N 55°29' W 004°55'2310.6
2017-Nov-18 03:18N 55°08' W 005°09'310.7
2017-Nov-18 03:00N 55°05' W 005°11'611.2
2017-Nov-18 02:30N 54°60' W 005°15'511.0
2017-Nov-18 02:01N 54°54' W 005°15'612.1
2017-Nov-18 01:30N 54°48' W 005°11'611.7
2017-Nov-18 01:00N 54°43' W 005°07'612.2
2017-Nov-18 00:30N 54°37' W 005°03'611.8
2017-Nov-18 00:00N 54°32' W 005°02'611.9
2017-Nov-17 23:31N 54°26' W 005°00'611.6
2017-Nov-17 23:00N 54°20' W 004°60'611.7
2017-Nov-17 22:31N 54°14' W 004°59'4510.8
2017-Nov-17 18:19N 53°42' W 004°05'411.5
2017-Nov-17 17:58N 53°40' W 003°59'511.5
2017-Nov-17 17:30N 53°37' W 003°52'611.5
2017-Nov-17 17:00N 53°34' W 003°43'611.0
2017-Nov-17 16:30N 53°34' W 003°34'511.0
2017-Nov-17 16:00N 53°33' W 003°25'510.9
2017-Nov-17 15:30N 53°32' W 003°16'612.9
2017-Nov-17 15:00N 53°30' W 003°06'4 7.6
2017-Nov-17 14:30N 53°27' W 003°01'0 0.1
2017-Nov-17 14:00N 53°27' W 003°01'0 0.4
2017-Nov-17 13:30N 53°27' W 003°01'0 0.7
2017-Nov-17 13:00N 53°28' W 003°02'0 0.0
2017-Nov-17 12:30N 53°28' W 003°02'0 0.0
2017-Nov-17 12:00N 53°28' W 003°02'0 0.0
2017-Nov-17 11:30N 53°28' W 003°02'0 0.0
2017-Nov-17 11:00N 53°28' W 003°02'0 0.0
2017-Nov-17 10:30N 53°28' W 003°02'0 0.0
2017-Nov-17 10:00N 53°28' W 003°02'0 0.0
2017-Nov-17 09:30N 53°28' W 003°02'0 0.0
2017-Nov-17 09:00N 53°28' W 003°02'0 0.0
2017-Nov-17 08:30N 53°28' W 003°02'0 0.0
2017-Nov-17 08:00N 53°28' W 003°02'0 0.0
2017-Nov-17 07:30N 53°28' W 003°02'0 0.0
2017-Nov-17 07:00N 53°28' W 003°02'0 0.0
2017-Nov-17 06:24N 53°28' W 003°02'0 0.0
2017-Nov-17 06:00N 53°28' W 003°02'0 0.0
2017-Nov-17 05:30N 53°28' W 003°02'0 0.0
2017-Nov-17 05:00N 53°28' W 003°02'0 0.0
2017-Nov-17 04:30N 53°28' W 003°02'0 0.0
2017-Nov-17 03:57N 53°28' W 003°02'0 0.0
2017-Nov-17 03:30N 53°28' W 003°02'0 0.0
2017-Nov-17 03:00N 53°28' W 003°02'0 0.0
2017-Nov-17 02:27N 53°28' W 003°02'0 0.0
2017-Nov-17 01:57N 53°28' W 003°02'0 0.0
2017-Nov-17 01:30N 53°28' W 003°02'0 0.0
2017-Nov-17 01:00N 53°28' W 003°02'0 0.0
2017-Nov-17 00:30N 53°28' W 003°02'0 0.0
2017-Nov-17 00:00N 53°28' W 003°02'0 0.0
2017-Nov-16 23:30N 53°28' W 003°02'0 0.0
2017-Nov-16 22:54N 53°28' W 003°02'0 0.0
2017-Nov-16 22:27N 53°28' W 003°02'0 0.0
2017-Nov-16 22:00N 53°28' W 003°02'0 0.0
2017-Nov-16 21:30N 53°28' W 003°02'0 0.0
2017-Nov-16 21:00N 53°28' W 003°02'0 0.0
2017-Nov-16 20:30N 53°28' W 003°02'0 0.0
2017-Nov-16 19:57N 53°28' W 003°02'0 0.0
2017-Nov-16 19:30N 53°28' W 003°02'0 0.0
2017-Nov-16 19:00N 53°28' W 003°02'0 0.0
2017-Nov-16 18:30N 53°28' W 003°02'0 0.0
2017-Nov-16 18:00N 53°28' W 003°02'0 0.0
2017-Nov-16 17:30N 53°28' W 003°02'0 0.0
2017-Nov-16 17:00N 53°28' W 003°02'0 0.0
2017-Nov-16 16:30N 53°28' W 003°02'0 0.0
2017-Nov-16 16:00N 53°28' W 003°02'0 0.0
2017-Nov-16 15:30N 53°28' W 003°02'0 0.0
2017-Nov-16 15:00N 53°28' W 003°02'0 0.0
2017-Nov-16 14:30N 53°28' W 003°02'0 0.0
2017-Nov-16 14:00N 53°28' W 003°02'0 0.0
2017-Nov-16 13:30N 53°28' W 003°02'0 0.0
2017-Nov-16 13:00N 53°28' W 003°02'0 0.3
2017-Nov-16 12:30N 53°27' W 003°01'0 0.9
2017-Nov-16 12:00N 53°27' W 003°01'0 0.3
2017-Nov-16 11:30N 53°27' W 003°01'0 0.5
2017-Nov-16 11:00N 53°27' W 003°02'1 1.1
2017-Nov-16 10:30N 53°27' W 003°02'613.1
2017-Nov-16 10:01N 53°32' W 003°10'713.1
2017-Nov-16 09:30N 53°32' W 003°22'3 5.5
2017-Nov-16 09:00N 53°31' W 003°26'4 7.5
2017-Nov-16 08:30N 53°31' W 003°33'4 7.2
2017-Nov-16 08:00N 53°31' W 003°39'4 8.8
2017-Nov-16 07:30N 53°31' W 003°46'510.9
2017-Nov-16 07:01N 53°30' W 003°55'510.1
2017-Nov-16 06:30N 53°30' W 004°04'510.0
2017-Nov-16 06:00N 53°30' W 004°12'8712.8
2017-Nov-15 23:13N 52°17' W 005°30'9814.0
2017-Nov-15 16:15N 50°44' W 006°18'8015.4
2017-Nov-15 11:04N 49°27' W 006°54'515.6
2017-Nov-15 10:45N 49°23' W 006°56'2715.5
2017-Nov-15 09:01N 48°57' W 007°09'3115.4
2017-Nov-15 07:02N 48°28' W 007°22'315.2
2017-Nov-15 06:51N 48°25' W 007°24'515.3
2017-Nov-15 06:29N 48°20' W 007°26'815.1
2017-Nov-15 05:58N 48°12' W 007°30'715.2
2017-Nov-15 05:30N 48°06' W 007°33'815.2
2017-Nov-15 04:59N 47°58' W 007°36'2017.8
2017-Nov-15 03:50N 47°39' W 007°46'  

Dump ship's entire track history